sensor_id;sensor_type;location;lat;lon;timestamp;P1;durP1;ratioP1;P2;durP2;ratioP2
4078;SDS011;2054;47.858;11.156;2023-05-29T02:45:39;7.65;;;4.10;;
4078;SDS011;2054;47.858;11.156;2023-05-29T02:48:08;10.63;;;4.78;;
4078;SDS011;2054;47.858;11.156;2023-05-29T02:50:35;8.20;;;4.53;;
4078;SDS011;2054;47.858;11.156;2023-05-29T02:53:03;8.32;;;4.60;;
4078;SDS011;2054;47.858;11.156;2023-05-29T02:55:30;7.88;;;4.40;;
4078;SDS011;2054;47.858;11.156;2023-05-29T02:58:00;9.57;;;4.80;;
4078;SDS011;2054;47.858;11.156;2023-05-29T03:00:28;8.65;;;4.60;;
4078;SDS011;2054;47.858;11.156;2023-05-29T03:02:56;8.02;;;4.75;;
4078;SDS011;2054;47.858;11.156;2023-05-29T03:05:24;8.50;;;4.75;;
4078;SDS011;2054;47.858;11.156;2023-05-29T03:07:51;7.85;;;4.50;;
4078;SDS011;2054;47.858;11.156;2023-05-29T03:10:18;7.88;;;4.32;;
4078;SDS011;2054;47.858;11.156;2023-05-29T03:12:46;6.95;;;4.30;;
4078;SDS011;2054;47.858;11.156;2023-05-29T03:15:13;8.75;;;4.53;;
4078;SDS011;2054;47.858;11.156;2023-05-29T03:17:40;5.88;;;4.10;;
4078;SDS011;2054;47.858;11.156;2023-05-29T03:20:09;7.35;;;4.35;;
4078;SDS011;2054;47.858;11.156;2023-05-29T03:22:36;7.50;;;4.20;;
4078;SDS011;2054;47.858;11.156;2023-05-29T03:25:05;10.50;;;4.43;;
4078;SDS011;2054;47.858;11.156;2023-05-29T03:27:32;8.10;;;4.80;;
4078;SDS011;2054;47.858;11.156;2023-05-29T03:29:59;7.55;;;4.47;;
4078;SDS011;2054;47.858;11.156;2023-05-29T03:32:28;8.10;;;3.85;;
4078;SDS011;2054;47.858;11.156;2023-05-29T03:34:55;8.18;;;4.55;;
4078;SDS011;2054;47.858;11.156;2023-05-29T03:37:24;8.70;;;4.32;;
4078;SDS011;2054;47.858;11.156;2023-05-29T03:39:51;8.27;;;4.45;;
4078;SDS011;2054;47.858;11.156;2023-05-29T03:42:18;7.68;;;4.50;;
4078;SDS011;2054;47.858;11.156;2023-05-29T03:44:45;7.28;;;4.57;;
4078;SDS011;2054;47.858;11.156;2023-05-29T03:47:13;7.43;;;4.43;;
4078;SDS011;2054;47.858;11.156;2023-05-29T03:49:40;6.70;;;3.92;;
4078;SDS011;2054;47.858;11.156;2023-05-29T03:52:07;7.07;;;4.28;;
4078;SDS011;2054;47.858;11.156;2023-05-29T03:54:36;8.50;;;4.53;;
4078;SDS011;2054;47.858;11.156;2023-05-29T03:57:03;7.10;;;4.88;;
4078;SDS011;2054;47.858;11.156;2023-05-29T03:59:31;7.78;;;4.63;;
4078;SDS011;2054;47.858;11.156;2023-05-29T04:01:59;6.78;;;4.47;;
4078;SDS011;2054;47.858;11.156;2023-05-29T04:04:26;7.03;;;4.28;;
4078;SDS011;2054;47.858;11.156;2023-05-29T04:06:53;6.80;;;4.53;;
4078;SDS011;2054;47.858;11.156;2023-05-29T04:09:21;7.45;;;4.20;;
4078;SDS011;2054;47.858;11.156;2023-05-29T04:11:50;7.35;;;4.45;;
4078;SDS011;2054;47.858;11.156;2023-05-29T04:14:19;9.75;;;4.70;;
4078;SDS011;2054;47.858;11.156;2023-05-29T04:16:47;9.27;;;5.05;;
4078;SDS011;2054;47.858;11.156;2023-05-29T04:19:14;11.05;;;5.90;;
4078;SDS011;2054;47.858;11.156;2023-05-29T04:21:41;12.15;;;5.15;;
4078;SDS011;2054;47.858;11.156;2023-05-29T04:24:08;8.43;;;4.68;;
4078;SDS011;2054;47.858;11.156;2023-05-29T04:26:36;11.20;;;5.32;;
4078;SDS011;2054;47.858;11.156;2023-05-29T04:29:07;8.02;;;5.10;;
4078;SDS011;2054;47.858;11.156;2023-05-29T04:31:34;11.73;;;5.88;;
4078;SDS011;2054;47.858;11.156;2023-05-29T04:34:02;12.82;;;6.15;;
4078;SDS011;2054;47.858;11.156;2023-05-29T04:36:30;10.52;;;6.10;;
4078;SDS011;2054;47.858;11.156;2023-05-29T04:38:58;9.18;;;5.80;;
4078;SDS011;2054;47.858;11.156;2023-05-29T04:41:26;14.88;;;6.10;;
4078;SDS011;2054;47.858;11.156;2023-05-29T04:43:56;11.40;;;5.38;;
4078;SDS011;2054;47.858;11.156;2023-05-29T04:46:25;10.50;;;5.57;;
4078;SDS011;2054;47.858;11.156;2023-05-29T04:48:52;8.90;;;5.60;;
4078;SDS011;2054;47.858;11.156;2023-05-29T04:51:20;10.90;;;5.93;;
4078;SDS011;2054;47.858;11.156;2023-05-29T04:53:47;10.65;;;5.78;;
4078;SDS011;2054;47.858;11.156;2023-05-29T04:56:14;13.10;;;5.85;;
4078;SDS011;2054;47.858;11.156;2023-05-29T04:58:41;9.85;;;5.70;;
4078;SDS011;2054;47.858;11.156;2023-05-29T05:01:09;9.93;;;5.75;;
4078;SDS011;2054;47.858;11.156;2023-05-29T05:03:40;11.63;;;6.32;;
4078;SDS011;2054;47.858;11.156;2023-05-29T05:06:08;12.60;;;6.53;;
4078;SDS011;2054;47.858;11.156;2023-05-29T05:08:35;12.00;;;5.90;;
4078;SDS011;2054;47.858;11.156;2023-05-29T05:11:02;11.15;;;6.15;;
4078;SDS011;2054;47.858;11.156;2023-05-29T05:13:31;16.80;;;5.85;;
4078;SDS011;2054;47.858;11.156;2023-05-29T05:15:58;10.02;;;5.55;;
4078;SDS011;2054;47.858;11.156;2023-05-29T05:18:26;11.38;;;5.78;;
4078;SDS011;2054;47.858;11.156;2023-05-29T05:20:54;9.50;;;5.60;;
4078;SDS011;2054;47.858;11.156;2023-05-29T05:23:22;10.40;;;5.50;;
4078;SDS011;2054;47.858;11.156;2023-05-29T05:25:49;10.20;;;5.53;;
4078;SDS011;2054;47.858;11.156;2023-05-29T05:28:16;11.43;;;6.32;;
4078;SDS011;2054;47.858;11.156;2023-05-29T05:30:43;10.48;;;5.80;;
4078;SDS011;2054;47.858;11.156;2023-05-29T05:33:11;9.55;;;5.85;;
4078;SDS011;2054;47.858;11.156;2023-05-29T05:35:38;9.40;;;5.80;;
4078;SDS011;2054;47.858;11.156;2023-05-29T05:38:06;10.70;;;5.65;;
4078;SDS011;2054;47.858;11.156;2023-05-29T05:40:34;10.38;;;6.13;;
4078;SDS011;2054;47.858;11.156;2023-05-29T05:43:01;9.98;;;6.00;;
4078;SDS011;2054;47.858;11.156;2023-05-29T05:45:28;9.50;;;6.47;;
4078;SDS011;2054;47.858;11.156;2023-05-29T05:47:56;11.70;;;6.03;;
4078;SDS011;2054;47.858;11.156;2023-05-29T05:50:23;8.00;;;5.85;;
4078;SDS011;2054;47.858;11.156;2023-05-29T05:52:51;9.45;;;5.45;;
4078;SDS011;2054;47.858;11.156;2023-05-29T05:55:19;9.43;;;6.35;;
4078;SDS011;2054;47.858;11.156;2023-05-29T05:57:46;12.27;;;7.07;;
4078;SDS011;2054;47.858;11.156;2023-05-29T06:00:14;10.25;;;6.20;;
4078;SDS011;2054;47.858;11.156;2023-05-29T06:02:42;12.52;;;6.45;;
4078;SDS011;2054;47.858;11.156;2023-05-29T06:05:10;12.75;;;6.15;;
4078;SDS011;2054;47.858;11.156;2023-05-29T06:07:37;8.65;;;5.60;;
4078;SDS011;2054;47.858;11.156;2023-05-29T06:10:05;8.63;;;5.80;;
4078;SDS011;2054;47.858;11.156;2023-05-29T06:12:34;11.98;;;5.63;;
4078;SDS011;2054;47.858;11.156;2023-05-29T06:15:01;11.60;;;6.43;;
4078;SDS011;2054;47.858;11.156;2023-05-29T06:17:29;10.75;;;5.32;;
4078;SDS011;2054;47.858;11.156;2023-05-29T06:19:56;13.13;;;6.72;;
4078;SDS011;2054;47.858;11.156;2023-05-29T06:22:23;10.48;;;6.30;;
4078;SDS011;2054;47.858;11.156;2023-05-29T06:24:51;9.98;;;6.10;;
4078;SDS011;2054;47.858;11.156;2023-05-29T06:27:18;13.05;;;6.40;;
4078;SDS011;2054;47.858;11.156;2023-05-29T06:29:47;13.07;;;6.55;;
4078;SDS011;2054;47.858;11.156;2023-05-29T06:32:15;12.27;;;5.78;;
4078;SDS011;2054;47.858;11.156;2023-05-29T06:34:42;9.07;;;6.25;;
4078;SDS011;2054;47.858;11.156;2023-05-29T06:37:09;9.30;;;6.10;;
4078;SDS011;2054;47.858;11.156;2023-05-29T06:39:37;11.20;;;5.80;;
4078;SDS011;2054;47.858;11.156;2023-05-29T06:42:07;8.60;;;5.55;;
4078;SDS011;2054;47.858;11.156;2023-05-29T06:44:34;11.90;;;6.30;;
4078;SDS011;2054;47.858;11.156;2023-05-29T06:47:03;7.97;;;5.60;;
4078;SDS011;2054;47.858;11.156;2023-05-29T06:49:30;10.50;;;6.25;;
4078;SDS011;2054;47.858;11.156;2023-05-29T06:51:58;10.10;;;5.97;;
4078;SDS011;2054;47.858;11.156;2023-05-29T06:54:26;10.45;;;6.07;;
4078;SDS011;2054;47.858;11.156;2023-05-29T06:56:53;10.50;;;6.20;;
4078;SDS011;2054;47.858;11.156;2023-05-29T06:59:20;11.10;;;6.28;;
4078;SDS011;2054;47.858;11.156;2023-05-29T07:01:47;9.75;;;6.05;;
4078;SDS011;2054;47.858;11.156;2023-05-29T07:04:16;12.48;;;6.30;;
4078;SDS011;2054;47.858;11.156;2023-05-29T07:06:43;10.57;;;6.30;;
4078;SDS011;2054;47.858;11.156;2023-05-29T07:09:10;10.40;;;6.05;;
4078;SDS011;2054;47.858;11.156;2023-05-29T07:11:37;10.95;;;6.10;;
4078;SDS011;2054;47.858;11.156;2023-05-29T07:14:05;9.13;;;5.97;;
4078;SDS011;2054;47.858;11.156;2023-05-29T07:16:32;8.70;;;6.03;;
4078;SDS011;2054;47.858;11.156;2023-05-29T07:19:00;10.57;;;6.03;;
4078;SDS011;2054;47.858;11.156;2023-05-29T07:21:28;11.73;;;6.20;;
4078;SDS011;2054;47.858;11.156;2023-05-29T07:23:56;9.70;;;6.13;;
4078;SDS011;2054;47.858;11.156;2023-05-29T07:26:23;9.05;;;5.50;;
4078;SDS011;2054;47.858;11.156;2023-05-29T07:28:51;12.13;;;7.00;;
4078;SDS011;2054;47.858;11.156;2023-05-29T07:31:18;8.75;;;5.85;;
4078;SDS011;2054;47.858;11.156;2023-05-29T07:33:45;8.82;;;5.65;;
4078;SDS011;2054;47.858;11.156;2023-05-29T07:36:14;10.50;;;5.40;;
4078;SDS011;2054;47.858;11.156;2023-05-29T07:38:43;9.93;;;5.57;;
4078;SDS011;2054;47.858;11.156;2023-05-29T07:41:10;6.35;;;5.25;;
4078;SDS011;2054;47.858;11.156;2023-05-29T07:43:38;9.63;;;5.93;;
4078;SDS011;2054;47.858;11.156;2023-05-29T07:46:05;9.90;;;6.05;;
4078;SDS011;2054;47.858;11.156;2023-05-29T07:48:32;8.82;;;5.93;;
4078;SDS011;2054;47.858;11.156;2023-05-29T07:50:59;10.05;;;5.80;;
4078;SDS011;2054;47.858;11.156;2023-05-29T07:53:27;8.45;;;5.63;;
4078;SDS011;2054;47.858;11.156;2023-05-29T07:55:55;9.43;;;5.75;;
4078;SDS011;2054;47.858;11.156;2023-05-29T07:58:22;9.65;;;5.75;;
4078;SDS011;2054;47.858;11.156;2023-05-29T08:00:50;9.57;;;5.38;;
4078;SDS011;2054;47.858;11.156;2023-05-29T08:03:17;11.85;;;5.85;;
4078;SDS011;2054;47.858;11.156;2023-05-29T08:05:44;9.10;;;5.75;;
4078;SDS011;2054;47.858;11.156;2023-05-29T08:08:12;10.85;;;5.35;;
4078;SDS011;2054;47.858;11.156;2023-05-29T08:10:39;8.93;;;5.95;;
4078;SDS011;2054;47.858;11.156;2023-05-29T08:13:08;12.20;;;5.38;;
4078;SDS011;2054;47.858;11.156;2023-05-29T08:15:35;11.85;;;5.57;;
4078;SDS011;2054;47.858;11.156;2023-05-29T08:18:02;9.48;;;5.38;;
4078;SDS011;2054;47.858;11.156;2023-05-29T08:20:30;12.05;;;5.40;;
4078;SDS011;2054;47.858;11.156;2023-05-29T08:22:59;8.55;;;5.15;;
4078;SDS011;2054;47.858;11.156;2023-05-29T08:25:26;10.75;;;5.30;;
4078;SDS011;2054;47.858;11.156;2023-05-29T08:27:53;7.55;;;5.03;;
4078;SDS011;2054;47.858;11.156;2023-05-29T08:30:22;6.60;;;4.28;;
4078;SDS011;2054;47.858;11.156;2023-05-29T08:32:49;9.68;;;4.63;;
4078;SDS011;2054;47.858;11.156;2023-05-29T08:35:16;9.23;;;4.85;;
4078;SDS011;2054;47.858;11.156;2023-05-29T08:37:43;6.55;;;4.43;;
4078;SDS011;2054;47.858;11.156;2023-05-29T08:40:11;8.15;;;5.30;;
4078;SDS011;2054;47.858;11.156;2023-05-29T08:42:40;8.75;;;4.95;;
4078;SDS011;2054;47.858;11.156;2023-05-29T08:45:11;9.52;;;4.82;;
4078;SDS011;2054;47.858;11.156;2023-05-29T08:47:41;7.22;;;4.80;;
4078;SDS011;2054;47.858;11.156;2023-05-29T08:50:10;6.25;;;4.63;;
4078;SDS011;2054;47.858;11.156;2023-05-29T08:52:37;8.85;;;5.30;;
4078;SDS011;2054;47.858;11.156;2023-05-29T08:55:05;9.23;;;6.05;;
4078;SDS011;2054;47.858;11.156;2023-05-29T08:57:32;9.18;;;5.50;;
4078;SDS011;2054;47.858;11.156;2023-05-29T09:00:01;7.72;;;5.30;;
4078;SDS011;2054;47.858;11.156;2023-05-29T09:02:33;8.07;;;5.43;;
4078;SDS011;2054;47.858;11.156;2023-05-29T09:05:03;8.57;;;5.95;;
4078;SDS011;2054;47.858;11.156;2023-05-29T09:07:31;11.05;;;6.22;;
4078;SDS011;2054;47.858;11.156;2023-05-29T09:09:59;10.80;;;5.53;;
4078;SDS011;2054;47.858;11.156;2023-05-29T09:12:26;9.13;;;5.10;;
4078;SDS011;2054;47.858;11.156;2023-05-29T09:14:53;8.20;;;5.60;;
4078;SDS011;2054;47.858;11.156;2023-05-29T09:17:21;9.48;;;5.80;;
4078;SDS011;2054;47.858;11.156;2023-05-29T09:19:48;7.50;;;5.35;;
4078;SDS011;2054;47.858;11.156;2023-05-29T09:22:16;8.10;;;5.07;;
4078;SDS011;2054;47.858;11.156;2023-05-29T09:24:45;9.57;;;5.13;;
4078;SDS011;2054;47.858;11.156;2023-05-29T09:27:13;8.30;;;5.43;;
4078;SDS011;2054;47.858;11.156;2023-05-29T09:29:41;9.82;;;5.45;;
4078;SDS011;2054;47.858;11.156;2023-05-29T09:32:09;8.40;;;5.40;;
4078;SDS011;2054;47.858;11.156;2023-05-29T09:34:37;10.60;;;5.50;;
4078;SDS011;2054;47.858;11.156;2023-05-29T09:37:05;8.60;;;4.50;;
4078;SDS011;2054;47.858;11.156;2023-05-29T09:39:37;8.30;;;4.90;;
4078;SDS011;2054;47.858;11.156;2023-05-29T09:42:11;6.57;;;4.43;;
4078;SDS011;2054;47.858;11.156;2023-05-29T09:44:39;8.25;;;4.95;;
4078;SDS011;2054;47.858;11.156;2023-05-29T09:47:06;7.55;;;4.55;;
4078;SDS011;2054;47.858;11.156;2023-05-29T09:49:34;7.38;;;4.90;;
4078;SDS011;2054;47.858;11.156;2023-05-29T09:52:03;10.68;;;4.70;;
4078;SDS011;2054;47.858;11.156;2023-05-29T09:54:34;9.80;;;4.70;;
4078;SDS011;2054;47.858;11.156;2023-05-29T09:57:04;7.97;;;4.57;;
4078;SDS011;2054;47.858;11.156;2023-05-29T09:59:32;6.00;;;4.43;;
4078;SDS011;2054;47.858;11.156;2023-05-29T10:02:01;10.63;;;4.40;;
4078;SDS011;2054;47.858;11.156;2023-05-29T10:04:29;6.90;;;4.60;;
4078;SDS011;2054;47.858;11.156;2023-05-29T10:06:57;7.30;;;4.63;;
4078;SDS011;2054;47.858;11.156;2023-05-29T10:09:27;7.25;;;4.63;;
4078;SDS011;2054;47.858;11.156;2023-05-29T10:11:55;7.47;;;4.78;;
4078;SDS011;2054;47.858;11.156;2023-05-29T10:14:27;7.60;;;4.97;;
4078;SDS011;2054;47.858;11.156;2023-05-29T10:16:56;6.63;;;4.25;;
4078;SDS011;2054;47.858;11.156;2023-05-29T10:19:25;5.85;;;4.32;;
4078;SDS011;2054;47.858;11.156;2023-05-29T10:21:53;8.20;;;5.13;;
4078;SDS011;2054;47.858;11.156;2023-05-29T10:24:22;5.45;;;4.40;;
4078;SDS011;2054;47.858;11.156;2023-05-29T10:26:49;6.30;;;4.70;;
4078;SDS011;2054;47.858;11.156;2023-05-29T10:29:19;6.18;;;4.40;;
4078;SDS011;2054;47.858;11.156;2023-05-29T10:31:55;7.07;;;4.55;;
4078;SDS011;2054;47.858;11.156;2023-05-29T10:34:29;7.13;;;4.18;;
4078;SDS011;2054;47.858;11.156;2023-05-29T10:37:01;8.90;;;4.85;;
4078;SDS011;2054;47.858;11.156;2023-05-29T10:39:28;6.90;;;4.93;;
4078;SDS011;2054;47.858;11.156;2023-05-29T10:41:56;8.55;;;5.65;;
4078;SDS011;2054;47.858;11.156;2023-05-29T10:44:39;6.47;;;4.65;;
4078;SDS011;2054;47.858;11.156;2023-05-29T10:47:08;7.65;;;4.88;;
4078;SDS011;2054;47.858;11.156;2023-05-29T10:49:37;7.00;;;4.65;;
4078;SDS011;2054;47.858;11.156;2023-05-29T10:52:04;6.35;;;4.40;;
4078;SDS011;2054;47.858;11.156;2023-05-29T10:54:49;6.13;;;4.88;;
4078;SDS011;2054;47.858;11.156;2023-05-29T10:57:18;7.13;;;4.57;;
4078;SDS011;2054;47.858;11.156;2023-05-29T10:59:45;6.55;;;4.65;;
4078;SDS011;2054;47.858;11.156;2023-05-29T11:02:18;9.15;;;4.63;;
4078;SDS011;2054;47.858;11.156;2023-05-29T11:04:53;8.27;;;4.70;;
4078;SDS011;2054;47.858;11.156;2023-05-29T11:07:34;5.45;;;4.22;;
4078;SDS011;2054;47.858;11.156;2023-05-29T11:10:11;8.63;;;4.30;;
4078;SDS011;2054;47.858;11.156;2023-05-29T11:15:21;8.18;;;4.70;;
4078;SDS011;2054;47.858;11.156;2023-05-29T11:17:49;5.53;;;4.30;;
4078;SDS011;2054;47.858;11.156;2023-05-29T11:20:27;8.32;;;5.07;;
4078;SDS011;2054;47.858;11.156;2023-05-29T11:23:02;6.35;;;4.63;;
4078;SDS011;2054;47.858;11.156;2023-05-29T11:25:33;7.57;;;4.97;;
4078;SDS011;2054;47.858;11.156;2023-05-29T11:28:00;6.30;;;4.45;;
4078;SDS011;2054;47.858;11.156;2023-05-29T11:30:29;6.97;;;4.50;;
4078;SDS011;2054;47.858;11.156;2023-05-29T11:32:59;8.25;;;4.80;;
4078;SDS011;2054;47.858;11.156;2023-05-29T11:35:30;5.95;;;4.05;;
4078;SDS011;2054;47.858;11.156;2023-05-29T11:37:59;6.50;;;4.60;;
4078;SDS011;2054;47.858;11.156;2023-05-29T11:40:27;6.90;;;4.68;;
4078;SDS011;2054;47.858;11.156;2023-05-29T11:42:55;7.95;;;5.00;;
4078;SDS011;2054;47.858;11.156;2023-05-29T11:45:22;7.15;;;4.78;;
4078;SDS011;2054;47.858;11.156;2023-05-29T11:47:53;7.72;;;5.60;;
4078;SDS011;2054;47.858;11.156;2023-05-29T11:50:22;6.88;;;4.45;;
4078;SDS011;2054;47.858;11.156;2023-05-29T11:52:50;13.60;;;9.57;;
4078;SDS011;2054;47.858;11.156;2023-05-29T11:55:18;12.90;;;8.60;;
4078;SDS011;2054;47.858;11.156;2023-05-29T11:57:45;9.43;;;4.50;;
4078;SDS011;2054;47.858;11.156;2023-05-29T12:00:13;9.68;;;4.55;;
4078;SDS011;2054;47.858;11.156;2023-05-29T12:02:40;5.35;;;4.25;;
4078;SDS011;2054;47.858;11.156;2023-05-29T12:05:08;6.28;;;4.35;;
4078;SDS011;2054;47.858;11.156;2023-05-29T12:07:46;6.72;;;4.70;;
4078;SDS011;2054;47.858;11.156;2023-05-29T12:10:14;7.03;;;4.80;;
4078;SDS011;2054;47.858;11.156;2023-05-29T12:12:42;7.22;;;4.45;;
4078;SDS011;2054;47.858;11.156;2023-05-29T12:15:09;7.47;;;4.70;;
4078;SDS011;2054;47.858;11.156;2023-05-29T12:17:38;7.53;;;4.75;;
4078;SDS011;2054;47.858;11.156;2023-05-29T12:20:07;7.47;;;4.80;;
4078;SDS011;2054;47.858;11.156;2023-05-29T12:22:35;7.25;;;4.55;;
4078;SDS011;2054;47.858;11.156;2023-05-29T12:25:05;9.70;;;4.68;;
4078;SDS011;2054;47.858;11.156;2023-05-29T12:27:32;6.85;;;4.72;;
4078;SDS011;2054;47.858;11.156;2023-05-29T12:30:06;6.93;;;4.22;;
4078;SDS011;2054;47.858;11.156;2023-05-29T12:32:35;9.27;;;4.78;;
4078;SDS011;2054;47.858;11.156;2023-05-29T12:35:12;7.93;;;5.18;;
4078;SDS011;2054;47.858;11.156;2023-05-29T12:37:44;6.82;;;4.50;;
4078;SDS011;2054;47.858;11.156;2023-05-29T12:40:24;4.85;;;4.35;;
4078;SDS011;2054;47.858;11.156;2023-05-29T12:42:53;6.95;;;5.05;;
4078;SDS011;2054;47.858;11.156;2023-05-29T12:45:22;8.70;;;4.85;;
4078;SDS011;2054;47.858;11.156;2023-05-29T12:47:50;6.32;;;4.63;;
4078;SDS011;2054;47.858;11.156;2023-05-29T12:50:20;7.13;;;4.95;;
4078;SDS011;2054;47.858;11.156;2023-05-29T12:52:57;8.13;;;4.65;;
4078;SDS011;2054;47.858;11.156;2023-05-29T12:55:26;7.78;;;4.55;;
4078;SDS011;2054;47.858;11.156;2023-05-29T12:57:56;6.53;;;4.45;;
4078;SDS011;2054;47.858;11.156;2023-05-29T13:00:23;5.53;;;4.40;;
4078;SDS011;2054;47.858;11.156;2023-05-29T13:02:50;6.00;;;4.43;;
4078;SDS011;2054;47.858;11.156;2023-05-29T13:05:18;5.10;;;4.13;;
4078;SDS011;2054;47.858;11.156;2023-05-29T13:07:47;8.57;;;4.70;;
4078;SDS011;2054;47.858;11.156;2023-05-29T13:10:15;7.38;;;4.22;;
4078;SDS011;2054;47.858;11.156;2023-05-29T13:12:44;6.60;;;4.25;;
4078;SDS011;2054;47.858;11.156;2023-05-29T13:15:12;5.72;;;4.13;;
4078;SDS011;2054;47.858;11.156;2023-05-29T13:17:40;5.28;;;4.18;;
4078;SDS011;2054;47.858;11.156;2023-05-29T13:20:09;6.95;;;4.53;;
4078;SDS011;2054;47.858;11.156;2023-05-29T13:22:37;6.32;;;4.30;;
4078;SDS011;2054;47.858;11.156;2023-05-29T13:25:05;6.13;;;4.20;;
4078;SDS011;2054;47.858;11.156;2023-05-29T13:27:32;6.00;;;4.80;;
4078;SDS011;2054;47.858;11.156;2023-05-29T13:30:02;6.28;;;4.80;;
4078;SDS011;2054;47.858;11.156;2023-05-29T13:32:29;4.95;;;4.05;;
4078;SDS011;2054;47.858;11.156;2023-05-29T13:34:57;6.03;;;4.40;;
4078;SDS011;2054;47.858;11.156;2023-05-29T13:37:24;5.07;;;4.03;;
4078;SDS011;2054;47.858;11.156;2023-05-29T13:39:52;4.75;;;4.05;;
4078;SDS011;2054;47.858;11.156;2023-05-29T13:42:20;5.97;;;4.60;;
4078;SDS011;2054;47.858;11.156;2023-05-29T13:44:47;5.82;;;4.60;;
4078;SDS011;2054;47.858;11.156;2023-05-29T13:47:16;5.03;;;4.03;;
4078;SDS011;2054;47.858;11.156;2023-05-29T13:49:44;6.03;;;4.30;;
4078;SDS011;2054;47.858;11.156;2023-05-29T13:52:11;7.40;;;4.38;;
4078;SDS011;2054;47.858;11.156;2023-05-29T13:54:38;6.22;;;4.45;;
4078;SDS011;2054;47.858;11.156;2023-05-29T13:57:06;7.82;;;4.35;;
4078;SDS011;2054;47.858;11.156;2023-05-29T13:59:33;7.45;;;4.28;;
4078;SDS011;2054;47.858;11.156;2023-05-29T14:02:01;5.95;;;3.97;;
4078;SDS011;2054;47.858;11.156;2023-05-29T14:04:30;6.05;;;4.47;;
4078;SDS011;2054;47.858;11.156;2023-05-29T14:06:57;7.32;;;3.83;;
4078;SDS011;2054;47.858;11.156;2023-05-29T14:09:25;4.93;;;4.20;;
4078;SDS011;2054;47.858;11.156;2023-05-29T14:11:56;7.85;;;4.38;;
4078;SDS011;2054;47.858;11.156;2023-05-29T14:14:24;5.75;;;4.03;;
4078;SDS011;2054;47.858;11.156;2023-05-29T14:16:52;5.43;;;4.57;;
4078;SDS011;2054;47.858;11.156;2023-05-29T14:19:19;6.45;;;4.68;;
4078;SDS011;2054;47.858;11.156;2023-05-29T14:21:48;9.10;;;4.70;;
4078;SDS011;2054;47.858;11.156;2023-05-29T14:24:15;5.85;;;4.15;;
4078;SDS011;2054;47.858;11.156;2023-05-29T14:26:43;6.65;;;4.43;;
4078;SDS011;2054;47.858;11.156;2023-05-29T14:29:12;5.20;;;4.10;;
4078;SDS011;2054;47.858;11.156;2023-05-29T14:31:39;5.00;;;3.90;;
4078;SDS011;2054;47.858;11.156;2023-05-29T14:34:06;4.72;;;4.00;;
4078;SDS011;2054;47.858;11.156;2023-05-29T14:36:33;6.05;;;4.40;;
4078;SDS011;2054;47.858;11.156;2023-05-29T14:39:03;5.30;;;4.18;;
4078;SDS011;2054;47.858;11.156;2023-05-29T14:41:31;4.88;;;3.88;;
4078;SDS011;2054;47.858;11.156;2023-05-29T14:43:58;5.28;;;4.45;;
4078;SDS011;2054;47.858;11.156;2023-05-29T14:46:25;5.30;;;4.20;;
4078;SDS011;2054;47.858;11.156;2023-05-29T14:48:56;7.03;;;4.47;;
4078;SDS011;2054;47.858;11.156;2023-05-29T14:51:23;5.40;;;4.13;;
4078;SDS011;2054;47.858;11.156;2023-05-29T14:53:50;8.35;;;3.83;;
4078;SDS011;2054;47.858;11.156;2023-05-29T14:56:19;7.07;;;4.38;;
4078;SDS011;2054;47.858;11.156;2023-05-29T14:58:46;7.43;;;4.53;;
4078;SDS011;2054;47.858;11.156;2023-05-29T15:01:14;6.10;;;4.30;;
4078;SDS011;2054;47.858;11.156;2023-05-29T15:03:41;6.15;;;4.18;;
4078;SDS011;2054;47.858;11.156;2023-05-29T15:06:08;6.68;;;4.35;;
4078;SDS011;2054;47.858;11.156;2023-05-29T15:08:36;6.45;;;4.10;;
4078;SDS011;2054;47.858;11.156;2023-05-29T15:11:05;4.80;;;4.10;;
4078;SDS011;2054;47.858;11.156;2023-05-29T15:13:35;6.30;;;4.20;;
4078;SDS011;2054;47.858;11.156;2023-05-29T15:16:02;5.45;;;4.22;;
4078;SDS011;2054;47.858;11.156;2023-05-29T15:18:30;5.45;;;3.88;;
4078;SDS011;2054;47.858;11.156;2023-05-29T15:20:57;4.90;;;3.90;;
4078;SDS011;2054;47.858;11.156;2023-05-29T15:23:25;8.32;;;4.07;;
4078;SDS011;2054;47.858;11.156;2023-05-29T15:25:52;5.43;;;4.13;;
4078;SDS011;2054;47.858;11.156;2023-05-29T15:28:19;5.07;;;3.67;;
4078;SDS011;2054;47.858;11.156;2023-05-29T15:30:48;5.72;;;4.28;;
4078;SDS011;2054;47.858;11.156;2023-05-29T15:33:15;5.85;;;4.13;;
4078;SDS011;2054;47.858;11.156;2023-05-29T15:35:42;6.45;;;4.30;;
4078;SDS011;2054;47.858;11.156;2023-05-29T15:38:11;5.20;;;4.50;;
4078;SDS011;2054;47.858;11.156;2023-05-29T15:40:38;7.10;;;4.82;;
4078;SDS011;2054;47.858;11.156;2023-05-29T15:43:06;7.03;;;4.43;;
4078;SDS011;2054;47.858;11.156;2023-05-29T15:45:33;5.78;;;4.70;;
4078;SDS011;2054;47.858;11.156;2023-05-29T15:48:02;5.70;;;4.32;;
4078;SDS011;2054;47.858;11.156;2023-05-29T15:50:29;5.18;;;3.85;;
4078;SDS011;2054;47.858;11.156;2023-05-29T15:52:56;5.28;;;4.05;;
4078;SDS011;2054;47.858;11.156;2023-05-29T15:55:24;7.60;;;5.85;;
4078;SDS011;2054;47.858;11.156;2023-05-29T15:57:51;5.22;;;4.40;;
4078;SDS011;2054;47.858;11.156;2023-05-29T16:00:18;8.02;;;4.40;;
4078;SDS011;2054;47.858;11.156;2023-05-29T16:02:46;8.10;;;4.28;;
4078;SDS011;2054;47.858;11.156;2023-05-29T16:05:15;6.07;;;4.40;;
4078;SDS011;2054;47.858;11.156;2023-05-29T16:07:42;9.13;;;4.53;;
4078;SDS011;2054;47.858;11.156;2023-05-29T16:10:12;5.65;;;4.10;;
4078;SDS011;2054;47.858;11.156;2023-05-29T16:12:41;7.13;;;4.97;;
4078;SDS011;2054;47.858;11.156;2023-05-29T16:15:09;6.47;;;4.75;;
4078;SDS011;2054;47.858;11.156;2023-05-29T16:17:37;6.63;;;5.25;;
4078;SDS011;2054;47.858;11.156;2023-05-29T16:20:05;7.90;;;5.55;;
4078;SDS011;2054;47.858;11.156;2023-05-29T16:22:34;6.28;;;4.47;;
4078;SDS011;2054;47.858;11.156;2023-05-29T16:25:02;8.18;;;5.22;;
4078;SDS011;2054;47.858;11.156;2023-05-29T16:27:29;8.95;;;6.55;;
4078;SDS011;2054;47.858;11.156;2023-05-29T16:29:57;7.07;;;4.97;;
4078;SDS011;2054;47.858;11.156;2023-05-29T16:32:25;13.43;;;10.57;;
4078;SDS011;2054;47.858;11.156;2023-05-29T16:34:53;20.02;;;14.40;;
4078;SDS011;2054;47.858;11.156;2023-05-29T16:37:21;19.05;;;11.05;;
4078;SDS011;2054;47.858;11.156;2023-05-29T16:39:50;8.85;;;4.35;;
4078;SDS011;2054;47.858;11.156;2023-05-29T16:42:17;6.82;;;4.18;;
4078;SDS011;2054;47.858;11.156;2023-05-29T16:44:44;6.32;;;4.50;;
4078;SDS011;2054;47.858;11.156;2023-05-29T16:47:12;6.05;;;3.85;;
4078;SDS011;2054;47.858;11.156;2023-05-29T16:49:39;4.60;;;3.92;;
4078;SDS011;2054;47.858;11.156;2023-05-29T16:52:07;4.97;;;3.95;;
4078;SDS011;2054;47.858;11.156;2023-05-29T16:54:34;6.03;;;3.90;;
4078;SDS011;2054;47.858;11.156;2023-05-29T16:57:07;7.97;;;4.82;;
4078;SDS011;2054;47.858;11.156;2023-05-29T16:59:34;4.38;;;3.75;;
4078;SDS011;2054;47.858;11.156;2023-05-29T17:02:02;5.05;;;4.13;;
4078;SDS011;2054;47.858;11.156;2023-05-29T17:04:29;5.25;;;3.60;;
4078;SDS011;2054;47.858;11.156;2023-05-29T17:06:57;5.43;;;4.05;;
4078;SDS011;2054;47.858;11.156;2023-05-29T17:09:25;6.40;;;3.53;;
4078;SDS011;2054;47.858;11.156;2023-05-29T17:11:52;5.20;;;4.00;;
4078;SDS011;2054;47.858;11.156;2023-05-29T17:14:22;4.50;;;3.63;;
4078;SDS011;2054;47.858;11.156;2023-05-29T17:16:49;7.07;;;3.90;;
4078;SDS011;2054;47.858;11.156;2023-05-29T17:19:16;6.30;;;3.90;;
4078;SDS011;2054;47.858;11.156;2023-05-29T17:21:43;5.05;;;3.72;;
4078;SDS011;2054;47.858;11.156;2023-05-29T17:24:12;4.00;;;3.50;;
4078;SDS011;2054;47.858;11.156;2023-05-29T17:26:39;7.65;;;3.97;;
4078;SDS011;2054;47.858;11.156;2023-05-29T17:29:06;5.05;;;4.07;;
4078;SDS011;2054;47.858;11.156;2023-05-29T17:31:35;6.18;;;3.75;;
4078;SDS011;2054;47.858;11.156;2023-05-29T17:34:02;7.00;;;3.90;;
4078;SDS011;2054;47.858;11.156;2023-05-29T17:36:30;6.82;;;4.40;;
4078;SDS011;2054;47.858;11.156;2023-05-29T17:38:57;6.40;;;3.95;;
4078;SDS011;2054;47.858;11.156;2023-05-29T17:41:24;5.80;;;4.32;;
4078;SDS011;2054;47.858;11.156;2023-05-29T17:43:52;4.50;;;4.07;;
4078;SDS011;2054;47.858;11.156;2023-05-29T17:46:20;5.80;;;3.70;;
4078;SDS011;2054;47.858;11.156;2023-05-29T17:48:49;6.57;;;4.63;;
4078;SDS011;2054;47.858;11.156;2023-05-29T17:51:17;5.65;;;3.97;;